Time;durP1;ratioP1;P1;durP2;ratioP2;P2;SDS_P1;SDS_P2;PMS_P1;PMS_P2;Temp;Humidity;BMP_temperature;BMP_pressure;BME280_temperature;BME280_humidity;BME280_pressure;Samples;Min_cycle;Max_cycle;Signal;HPM_P1;HPM_P2
2021/05/19 00:00:18;;;;;;;0.77;0.40;;;;;;;15.50;40.17;97900.22;4979435;28;20391;-73
2021/05/19 00:02:44;;;;;;;1.30;0.35;;;;;;;15.56;40.71;97904.66;4972206;28;20053;-73
2021/05/19 00:05:11;;;;;;;1.42;0.30;;;;;;;15.40;40.71;97904.19;4975002;28;20049;-73
2021/05/19 00:07:37;;;;;;;1.92;0.35;;;;;;;15.53;40.22;97919.97;4975778;28;20029;-73
2021/05/19 00:10:03;;;;;;;0.50;0.15;;;;;;;15.73;39.98;97925.31;4978560;28;20415;-72
2021/05/19 00:12:29;;;;;;;1.30;0.38;;;;;;;15.66;39.71;97913.97;4971433;28;20155;-73
2021/05/19 00:14:54;;;;;;;0.35;0.17;;;;;;;15.61;40.02;97919.03;4975273;28;20438;-73
2021/05/19 00:17:19;;;;;;;1.95;0.40;;;;;;;15.62;39.93;97925.88;4992751;28;20031;-73
2021/05/19 00:19:45;;;;;;;0.65;0.20;;;;;;;15.42;39.60;97900.34;4970077;28;20044;-73
2021/05/19 00:22:11;;;;;;;0.65;0.25;;;;;;;15.61;39.64;97925.06;4979541;28;20032;-73
2021/05/19 00:24:36;;;;;;;0.65;0.20;;;;;;;15.75;39.27;97924.16;4976938;28;20483;-73
2021/05/19 00:27:01;;;;;;;0.93;0.30;;;;;;;15.75;39.70;97931.19;4978074;28;20398;-73
2021/05/19 00:29:27;;;;;;;1.00;0.30;;;;;;;15.47;39.81;97908.44;4988939;28;20451;-73
2021/05/19 00:31:52;;;;;;;2.42;0.60;;;;;;;15.46;40.22;97909.47;4978115;28;20107;-73
2021/05/19 00:34:18;;;;;;;1.33;0.30;;;;;;;15.63;39.10;97909.94;4976260;28;20035;-73
2021/05/19 00:36:44;;;;;;;2.30;0.43;;;;;;;15.66;38.79;97917.44;4977345;28;20102;-73
2021/05/19 00:39:11;;;;;;;2.53;0.38;;;;;;;15.47;38.28;97892.72;4980290;28;20026;-73
2021/05/19 00:41:39;;;;;;;0.85;0.28;;;;;;;15.66;38.57;97920.06;4991261;28;20101;-72
2021/05/19 00:44:07;;;;;;;0.52;0.20;;;;;;;15.54;39.74;97917.16;4980132;28;20023;-73
2021/05/19 00:46:34;;;;;;;2.15;0.30;;;;;;;15.65;40.80;97917.63;4978184;28;20885;-73
2021/05/19 00:49:00;;;;;;;1.67;0.20;;;;;;;15.48;40.87;97920.56;4961967;28;20022;-72
2021/05/19 00:51:25;;;;;;;0.90;0.30;;;;;;;15.37;41.63;97908.00;4976743;28;20073;-72
2021/05/19 00:53:52;;;;;;;0.65;0.20;;;;;;;15.24;41.38;97910.53;4961103;28;20022;-72
2021/05/19 00:56:18;;;;;;;0.20;0.10;;;;;;;15.39;41.25;97913.84;4979839;28;20040;-73
2021/05/19 00:58:43;;;;;;;0.57;0.20;;;;;;;15.37;39.21;97910.63;4979333;28;20577;-72
2021/05/19 01:01:09;;;;;;;1.85;0.20;;;;;;;15.40;40.56;97917.28;4993481;28;20486;-72
2021/05/19 01:03:37;;;;;;;0.65;0.10;;;;;;;15.44;38.92;97918.50;4978050;28;20782;-73
2021/05/19 01:06:06;;;;;;;2.55;0.30;;;;;;;15.33;39.92;97917.22;4978698;28;20026;-72
2021/05/19 01:11:15;;;;;;;1.45;0.30;;;;;;;15.45;39.84;97925.38;4994395;28;20101;-73
2021/05/19 01:13:43;;;;;;;1.08;0.20;;;;;;;15.28;39.17;97928.28;4979031;28;20121;-73
2021/05/19 01:16:09;;;;;;;1.30;0.30;;;;;;;15.11;40.44;97922.53;4978511;28;20026;-73
2021/05/19 01:18:36;;;;;;;0.47;0.20;;;;;;;15.28;39.90;97919.63;4964556;28;20512;-73
2021/05/19 01:21:01;;;;;;;0.20;0.15;;;;;;;15.23;39.51;97909.72;4974050;28;20054;-71
2021/05/19 01:23:30;;;;;;;0.98;0.28;;;;;;;15.23;39.18;97909.72;4995744;28;20104;-72
2021/05/19 01:25:56;;;;;;;0.57;0.20;;;;;;;15.29;38.56;97908.13;4992535;28;20034;-71
2021/05/19 01:28:21;;;;;;;1.33;0.25;;;;;;;15.26;37.33;97905.91;4980344;28;20022;-72
2021/05/19 01:30:47;;;;;;;1.35;0.13;;;;;;;15.25;36.52;97918.19;5000309;28;20038;-72
2021/05/19 01:33:13;;;;;;;0.50;0.20;;;;;;;15.20;36.59;97902.22;4979874;28;20031;-72
2021/05/19 01:35:38;;;;;;;0.95;0.20;;;;;;;15.33;36.68;97911.97;4982701;28;20015;-72
2021/05/19 01:38:06;;;;;;;0.75;0.30;;;;;;;15.28;37.05;97917.81;4978753;28;20030;-72
2021/05/19 01:40:32;;;;;;;0.40;0.10;;;;;;;15.25;37.41;97920.00;4982594;28;20057;-72
2021/05/19 01:42:58;;;;;;;0.50;0.10;;;;;;;15.32;35.69;97911.19;4982267;28;20026;-72
2021/05/19 01:45:24;;;;;;;0.75;0.22;;;;;;;15.36;36.29;97922.88;4976827;28;20080;-72
2021/05/19 01:47:52;;;;;;;1.00;0.15;;;;;;;15.37;36.68;97928.97;4997637;28;20042;-72
2021/05/19 01:50:20;;;;;;;0.80;0.25;;;;;;;15.21;36.24;97903.88;4983283;28;20035;-73
2021/05/19 01:52:45;;;;;;;1.40;0.30;;;;;;;15.38;35.79;97931.34;4979827;28;20023;-73
2021/05/19 01:55:13;;;;;;;1.15;0.20;;;;;;;15.36;36.65;97935.19;4984640;28;20018;-72
2021/05/19 01:57:42;;;;;;;0.43;0.20;;;;;;;15.29;35.75;97916.78;4998250;28;20563;-72
2021/05/19 02:00:08;;;;;;;0.63;0.10;;;;;;;15.30;35.63;97915.00;4966339;28;20061;-72
2021/05/19 02:02:34;;;;;;;0.50;0.10;;;;;;;15.14;34.65;97909.06;4996592;28;20065;-72
2021/05/19 02:05:00;;;;;;;0.90;0.20;;;;;;;15.17;34.42;97913.91;4977505;28;20029;-72
2021/05/19 02:07:25;;;;;;;1.45;0.35;;;;;;;15.29;34.14;97923.84;4995631;28;20053;-73
2021/05/19 02:09:51;;;;;;;1.70;0.32;;;;;;;15.13;34.99;97917.09;4983449;28;20026;-73
2021/05/19 02:12:16;;;;;;;1.10;0.15;;;;;;;15.26;35.79;97930.28;4973234;28;20034;-73
2021/05/19 02:14:42;;;;;;;0.55;0.20;;;;;;;15.45;35.61;97948.94;4994373;28;20441;-73
2021/05/19 02:17:07;;;;;;;1.27;0.20;;;;;;;15.44;36.40;97948.16;4978708;28;20744;-72
2021/05/19 02:19:33;;;;;;;1.35;0.20;;;;;;;15.22;37.36;97938.72;4979018;28;20019;-72
2021/05/19 02:21:58;;;;;;;0.85;0.20;;;;;;;15.13;37.00;97948.50;4996694;28;20348;-73
2021/05/19 02:24:24;;;;;;;0.50;0.20;;;;;;;15.08;36.87;97945.69;4984386;28;20019;-72
2021/05/19 02:26:50;;;;;;;1.08;0.17;;;;;;;15.06;37.22;97926.69;4977759;28;20033;-73
2021/05/19 02:29:16;;;;;;;0.65;0.15;;;;;;;15.13;37.32;97946.72;4997000;28;20081;-73
2021/05/19 02:31:42;;;;;;;0.40;0.13;;;;;;;15.21;37.87;97945.75;4995266;28;20661;-72
2021/05/19 02:34:08;;;;;;;0.80;0.20;;;;;;;15.33;37.55;97957.34;4964376;28;20085;-73
2021/05/19 02:36:34;;;;;;;0.43;0.10;;;;;;;15.19;36.43;97932.84;4982490;28;20022;-72
2021/05/19 02:39:00;;;;;;;1.27;0.10;;;;;;;15.31;35.75;97943.59;4981155;28;20026;-73
2021/05/19 02:41:25;;;;;;;1.90;0.30;;;;;;;15.30;36.20;97949.06;4996993;28;20022;-72
2021/05/19 02:43:51;;;;;;;1.45;0.20;;;;;;;15.37;36.03;97958.56;4996853;28;20070;-72
2021/05/19 02:46:17;;;;;;;1.33;0.20;;;;;;;15.31;36.61;97953.28;4981594;28;20510;-73
2021/05/19 02:48:42;;;;;;;0.45;0.10;;;;;;;15.46;36.45;97964.47;4962466;28;20030;-73
2021/05/19 02:51:10;;;;;;;1.42;0.15;;;;;;;15.40;36.27;97948.72;4995917;28;20031;-72
2021/05/19 02:53:36;;;;;;;0.75;0.10;;;;;;;15.48;35.72;97967.72;4981209;28;20033;-73
2021/05/19 02:56:03;;;;;;;0.77;0.10;;;;;;;15.37;34.99;97968.25;4964845;28;20022;-72
2021/05/19 02:58:29;;;;;;;0.63;0.20;;;;;;;15.40;35.80;97980.16;4982586;28;20030;-73
2021/05/19 03:00:55;;;;;;;0.63;0.10;;;;;;;15.34;35.09;97966.00;4980181;28;20026;-72
2021/05/19 03:03:21;;;;;;;0.43;0.13;;;;;;;15.24;33.27;97981.22;4981482;28;20026;-72
2021/05/19 03:05:46;;;;;;;1.20;0.30;;;;;;;15.30;33.52;97977.88;4970723;28;20034;-72
2021/05/19 03:08:11;;;;;;;0.60;0.10;;;;;;;15.42;33.99;97984.19;4982496;28;20030;-71
2021/05/19 03:10:37;;;;;;;0.98;0.20;;;;;;;15.41;33.70;97987.81;4999151;28;20612;-72
2021/05/19 03:13:03;;;;;;;0.40;0.10;;;;;;;15.15;34.72;97970.06;4981302;28;20022;-72
2021/05/19 03:15:29;;;;;;;0.20;0.13;;;;;;;15.30;35.04;97996.19;4993619;28;20026;-73
2021/05/19 03:17:54;;;;;;;1.45;0.38;;;;;;;15.31;34.18;97988.13;4981161;28;20026;-73
2021/05/19 03:20:20;;;;;;;1.15;0.20;;;;;;;15.39;33.53;97981.97;4982291;28;20459;-72
2021/05/19 03:22:45;;;;;;;0.80;0.10;;;;;;;15.45;32.17;97996.91;4981387;28;20511;-72
2021/05/19 03:25:11;;;;;;;0.13;0.10;;;;;;;15.29;31.89;97984.09;4966953;28;20022;-73
2021/05/19 03:27:37;;;;;;;1.20;0.25;;;;;;;15.36;32.00;97992.81;4979478;28;20105;-72
2021/05/19 03:30:06;;;;;;;1.17;0.20;;;;;;;15.21;32.66;97977.19;4969351;28;20026;-72
2021/05/19 03:32:31;;;;;;;1.58;0.43;;;;;;;15.28;32.21;97990.34;4979838;28;20045;-73
2021/05/19 03:34:57;;;;;;;1.75;0.10;;;;;;;15.23;32.69;98003.19;4997622;28;20026;-73
2021/05/19 03:37:22;;;;;;;2.35;0.30;;;;;;;15.14;32.76;97978.94;4966205;28;20677;-73
2021/05/19 03:39:48;;;;;;;0.55;0.20;;;;;;;15.33;32.76;98009.72;4982905;28;20036;-72
2021/05/19 03:42:13;;;;;;;0.20;0.10;;;;;;;15.27;32.50;98007.03;4967282;28;20031;-72
2021/05/19 03:44:39;;;;;;;0.85;0.20;;;;;;;15.39;31.09;98021.25;4993325;28;20046;-72
2021/05/19 03:47:04;;;;;;;1.92;0.30;;;;;;;15.42;30.61;98018.22;4992652;28;20057;-73
2021/05/19 03:49:34;;;;;;;0.90;0.20;;;;;;;15.37;31.45;98026.69;4988735;28;20082;-72
2021/05/19 03:51:59;;;;;;;2.55;0.32;;;;;;;15.37;30.76;98031.13;4992792;28;20356;-72
2021/05/19 03:54:25;;;;;;;1.23;0.22;;;;;;;15.31;31.55;98024.00;4986613;28;20023;-72
2021/05/19 03:56:50;;;;;;;2.92;0.30;;;;;;;15.19;31.06;98000.16;4988910;28;20030;-71
2021/05/19 03:59:16;;;;;;;1.60;0.30;;;;;;;15.48;30.56;98027.13;5007538;28;20081;-73
2021/05/19 04:01:42;;;;;;;0.88;0.20;;;;;;;15.45;30.94;98038.03;4994246;28;20034;-72
2021/05/19 04:04:07;;;;;;;2.50;0.30;;;;;;;15.35;32.00;98038.31;5009006;28;20103;-72
2021/05/19 04:06:33;;;;;;;2.30;0.20;;;;;;;15.27;32.16;98023.56;4995684;28;20185;-72
2021/05/19 04:08:58;;;;;;;0.70;0.15;;;;;;;15.31;32.10;98044.94;4995221;28;20030;-72
2021/05/19 04:11:23;;;;;;;0.88;0.20;;;;;;;15.29;32.75;98044.34;4989056;28;20105;-72
2021/05/19 04:13:49;;;;;;;2.28;0.30;;;;;;;15.33;32.28;98046.41;4994437;28;20030;-72
2021/05/19 04:16:15;;;;;;;0.57;0.20;;;;;;;15.23;30.90;98034.63;4988435;28;20095;-72
2021/05/19 04:18:41;;;;;;;2.53;0.28;;;;;;;15.31;31.24;98040.50;5005419;28;20034;-73
2021/05/19 04:21:07;;;;;;;0.68;0.15;;;;;;;15.30;31.70;98059.84;4989646;28;20076;-73
2021/05/19 04:23:34;;;;;;;0.70;0.20;;;;;;;15.26;31.49;98050.78;5005838;28;20026;-72
2021/05/19 04:26:00;;;;;;;0.95;0.20;;;;;;;15.11;31.86;98050.00;4995599;28;20086;-73
2021/05/19 04:28:25;;;;;;;1.67;0.38;;;;;;;15.16;32.82;98061.53;5003413;28;20582;-72
2021/05/19 04:30:51;;;;;;;2.63;0.32;;;;;;;15.11;32.01;98071.78;4988687;28;20019;-73
2021/05/19 04:33:18;;;;;;;1.52;0.30;;;;;;;14.96;32.55;98034.38;4997474;28;20515;-72
2021/05/19 04:35:44;;;;;;;0.55;0.10;;;;;;;15.15;33.43;98075.66;4978917;28;20035;-73
2021/05/19 04:38:10;;;;;;;1.75;0.20;;;;;;;15.17;33.52;98072.84;4984096;28;20030;-73
2021/05/19 04:40:35;;;;;;;2.00;0.30;;;;;;;15.26;32.98;98069.09;4991005;28;20074;-73
2021/05/19 04:43:06;;;;;;;0.77;0.13;;;;;;;15.07;33.59;98060.03;4980545;28;20038;-72
2021/05/19 04:45:32;;;;;;;3.60;0.30;;;;;;;15.04;33.50;98052.59;4972988;28;20420;-72
2021/05/19 04:47:58;;;;;;;1.50;0.40;;;;;;;15.12;32.91;98067.34;4978096;28;20061;-73
2021/05/19 04:50:23;;;;;;;1.23;0.30;;;;;;;15.21;32.89;98076.69;4992904;28;20598;-73
2021/05/19 04:52:49;;;;;;;1.65;0.40;;;;;;;15.07;33.41;98069.72;4991982;28;20068;-72
2021/05/19 04:55:14;;;;;;;1.08;0.30;;;;;;;15.23;33.48;98084.38;4976124;28;20500;-72
2021/05/19 04:57:40;;;;;;;1.83;0.30;;;;;;;15.29;33.55;98087.03;4994556;28;20077;-72
2021/05/19 05:00:08;;;;;;;2.42;0.32;;;;;;;15.18;33.32;98083.09;4978594;28;20026;-73
2021/05/19 05:02:34;;;;;;;0.98;0.30;;;;;;;15.17;32.47;98070.22;4974637;28;20022;-73
2021/05/19 05:04:59;;;;;;;0.63;0.20;;;;;;;15.11;32.46;98063.09;4970662;28;20072;-73
2021/05/19 05:07:26;;;;;;;2.42;0.30;;;;;;;15.19;32.58;98070.84;4994083;28;20026;-73
2021/05/19 05:09:51;;;;;;;2.20;0.30;;;;;;;15.02;32.13;98064.22;5000241;28;20038;-73
2021/05/19 05:12:17;;;;;;;1.67;0.35;;;;;;;14.98;32.99;98082.09;4982164;28;20177;-74
2021/05/19 05:14:42;;;;;;;1.00;0.35;;;;;;;14.99;33.41;98086.34;4995920;28;20026;-73
2021/05/19 05:17:08;;;;;;;2.53;0.50;;;;;;;14.99;33.01;98094.22;4977268;28;20467;-75
2021/05/19 05:19:34;;;;;;;1.63;0.50;;;;;;;14.78;32.30;98082.72;4967342;28;20029;-75
2021/05/19 05:21:59;;;;;;;3.70;0.80;;;;;;;15.04;32.61;98094.47;4985089;28;20018;-73
2021/05/19 05:24:25;;;;;;;4.93;0.90;;;;;;;14.90;31.81;98074.38;4982683;28;20052;-68
2021/05/19 05:26:50;;;;;;;5.82;1.25;;;;;;;14.70;31.43;98084.63;4988316;28;20055;-70
2021/05/19 05:29:15;;;;;;;4.60;1.00;;;;;;;14.67;32.56;98104.09;4981989;28;20026;-70
2021/05/19 05:31:41;;;;;;;8.63;2.70;;;;;;;14.74;32.50;98109.44;4984025;28;20030;-70
2021/05/19 05:34:06;;;;;;;8.77;2.60;;;;;;;14.84;32.35;98111.75;4987366;28;20053;-71
2021/05/19 05:36:32;;;;;;;8.13;2.47;;;;;;;14.89;32.37;98106.78;4983717;28;20073;-71
2021/05/19 05:38:57;;;;;;;9.20;4.05;;;;;;;15.00;32.55;98114.13;4994296;28;20085;-70
2021/05/19 05:41:23;;;;;;;13.90;6.07;;;;;;;14.83;32.26;98087.38;4977711;28;20134;-71
2021/05/19 05:43:48;;;;;;;14.05;4.70;;;;;;;15.04;32.26;98115.41;4960114;28;20034;-69
2021/05/19 05:46:14;;;;;;;77.65;18.90;;;;;;;14.93;32.17;98110.63;4978935;28;20095;-71
2021/05/19 05:48:40;;;;;;;17.02;6.35;;;;;;;14.78;32.19;98116.75;4989354;28;20653;-71
2021/05/19 05:51:06;;;;;;;24.17;7.47;;;;;;;14.71;32.76;98081.00;4977705;28;20041;-73
2021/05/19 05:53:31;;;;;;;54.45;13.40;;;;;;;14.91;32.01;98116.09;4975666;28;20455;-72
2021/05/19 05:55:57;;;;;;;15.15;3.60;;;;;;;14.66;31.94;98099.88;4990456;28;20058;-72
2021/05/19 05:58:22;;;;;;;34.42;10.35;;;;;;;14.72;32.08;98107.00;4989462;28;20045;-72
2021/05/19 06:00:48;;;;;;;24.75;8.52;;;;;;;14.64;32.40;98109.72;4976209;28;20037;-74
2021/05/19 06:03:14;;;;;;;22.80;7.28;;;;;;;14.55;32.73;98098.50;4983516;28;20026;-72
2021/05/19 06:05:40;;;;;;;22.77;8.43;;;;;;;14.43;33.08;98094.72;4989182;28;20473;-73
2021/05/19 06:08:05;;;;;;;37.25;8.02;;;;;;;14.63;33.17;98118.56;4992594;28;20038;-73
2021/05/19 06:10:31;;;;;;;24.15;7.75;;;;;;;14.51;33.18;98099.06;4978049;28;20030;-73
2021/05/19 06:12:56;;;;;;;31.92;12.02;;;;;;;14.42;33.20;98114.84;4976829;28;20034;-74
2021/05/19 06:15:22;;;;;;;16.13;4.57;;;;;;;14.52;32.54;98119.00;4975381;28;20034;-73
2021/05/19 06:17:47;;;;;;;111.85;25.35;;;;;;;14.54;32.31;98109.16;4976683;28;20499;-73
2021/05/19 06:20:14;;;;;;;20.05;6.80;;;;;;;14.60;32.68;98118.91;4976692;28;20037;-73
2021/05/19 06:22:40;;;;;;;820.40;166.25;;;;;;;14.64;31.97;98132.44;4975707;28;20117;-73
2021/05/19 06:25:06;;;;;;;40.92;11.40;;;;;;;14.61;31.78;98118.75;4978227;28;20585;-73
2021/05/19 06:27:32;;;;;;;24.15;7.95;;;;;;;14.69;31.92;98128.28;4989038;28;20038;-73
2021/05/19 06:29:57;;;;;;;32.17;13.70;;;;;;;14.77;31.94;98135.25;4975537;28;20070;-73
2021/05/19 06:32:23;;;;;;;91.82;24.83;;;;;;;14.82;31.84;98137.28;4977535;28;20040;-73
2021/05/19 06:34:48;;;;;;;42.65;11.75;;;;;;;14.98;30.52;98145.75;4990436;28;20040;-72
2021/05/19 06:37:13;;;;;;;9.57;2.22;;;;;;;14.72;30.47;98130.53;4976647;28;20039;-75
2021/05/19 06:39:39;;;;;;;71.15;24.52;;;;;;;14.66;30.16;98122.59;4997663;28;20034;-74
2021/05/19 06:42:05;;;;;;;42.58;15.50;;;;;;;14.95;29.63;98153.19;4979282;28;20589;-75
2021/05/19 06:44:31;;;;;;;30.30;10.43;;;;;;;14.94;29.76;98141.88;4965709;28;20014;-74
2021/05/19 06:46:57;;;;;;;149.90;37.05;;;;;;;14.83;29.26;98137.13;4995780;28;20030;-73
2021/05/19 06:49:22;;;;;;;40.42;19.63;;;;;;;14.95;29.53;98142.72;4980604;28;20031;-74
2021/05/19 06:51:48;;;;;;;96.65;51.20;;;;;;;14.99;29.44;98146.56;4979658;28;20041;-74
2021/05/19 06:54:14;;;;;;;63.53;23.60;;;;;;;15.11;29.97;98159.97;4984968;28;20070;-72
2021/05/19 06:56:46;;;;;;;23.25;9.20;;;;;;;15.05;28.74;98164.16;4972170;28;20030;-73
2021/05/19 06:59:12;;;;;;;7.07;1.63;;;;;;;15.14;29.17;98180.56;4986380;28;20018;-73
2021/05/19 07:01:39;;;;;;;7.07;1.15;;;;;;;15.03;28.98;98153.06;4981729;28;20866;-73
2021/05/19 07:04:04;;;;;;;27.50;11.40;;;;;;;15.10;28.93;98156.56;4976009;28;20034;-73
2021/05/19 07:06:30;;;;;;;8.70;2.00;;;;;;;14.96;29.21;98139.88;4979491;28;20120;-71
2021/05/19 07:08:55;;;;;;;3.03;0.40;;;;;;;15.19;29.26;98158.06;4977568;28;20164;-71
2021/05/19 07:11:21;;;;;;;1.02;0.20;;;;;;;15.11;29.71;98166.06;4983809;28;20038;-72
2021/05/19 07:13:46;;;;;;;4.13;0.80;;;;;;;15.29;29.60;98175.28;4987483;28;20435;-72
2021/05/19 07:16:13;;;;;;;2.40;0.40;;;;;;;15.40;29.50;98166.13;4983359;28;20056;-73
2021/05/19 07:18:39;;;;;;;0.88;0.30;;;;;;;15.49;29.24;98172.88;4982674;28;20377;-71
2021/05/19 07:21:04;;;;;;;0.95;0.20;;;;;;;15.04;29.15;98156.47;4980625;28;20061;-71
2021/05/19 07:23:30;;;;;;;1.60;0.20;;;;;;;15.13;28.55;98160.59;4965846;28;20022;-71
2021/05/19 07:25:55;;;;;;;1.48;0.28;;;;;;;15.39;28.94;98175.81;4971822;28;20053;-71
2021/05/19 07:28:21;;;;;;;1.00;0.20;;;;;;;15.47;29.36;98173.06;4978096;28;20030;-71
2021/05/19 07:30:48;;;;;;;4.43;0.40;;;;;;;15.55;28.17;98177.34;4977410;28;20050;-71
2021/05/19 07:33:14;;;;;;;2.67;0.30;;;;;;;15.56;28.45;98176.38;4980394;28;20499;-71
2021/05/19 07:35:40;;;;;;;2.58;0.20;;;;;;;15.62;28.86;98185.28;4977551;28;20545;-70
2021/05/19 07:38:08;;;;;;;5.68;0.50;;;;;;;15.57;27.73;98170.13;4979888;28;20104;-71
2021/05/19 07:40:35;;;;;;;1.85;0.40;;;;;;;15.57;28.12;98157.84;4978386;28;20077;-71
2021/05/19 07:43:00;;;;;;;1.65;0.50;;;;;;;16.12;28.22;98173.84;4966799;28;20033;-72
2021/05/19 07:45:26;;;;;;;3.10;0.40;;;;;;;16.27;27.42;98155.38;4981472;28;20392;-71
2021/05/19 07:47:51;;;;;;;4.25;0.40;;;;;;;16.73;27.53;98173.19;4981648;28;20073;-71
2021/05/19 07:50:17;;;;;;;2.72;0.40;;;;;;;16.95;27.16;98172.31;4982198;28;20066;-71
2021/05/19 07:52:43;;;;;;;4.75;0.77;;;;;;;17.16;27.12;98174.81;4982366;28;20034;-71
2021/05/19 07:55:18;;;;;;;8.23;0.45;;;;;;;17.33;26.24;98169.19;4993122;28;20117;-71
2021/05/19 07:57:49;;;;;;;3.70;0.40;;;;;;;17.60;26.89;98178.75;4976475;28;20053;-71
2021/05/19 08:00:19;;;;;;;1.67;0.40;;;;;;;17.81;26.00;98175.09;4980311;28;20056;-71
2021/05/19 08:02:44;;;;;;;;;;;;;;;17.99;25.17;98174.53;4995098;28;20018;-72
2021/05/19 08:05:10;;;;;;;4.38;0.80;;;;;;;18.21;24.95;98174.31;4960204;28;19960;-72
2021/05/19 08:07:36;;;;;;;3.22;0.60;;;;;;;18.17;24.87;98152.06;4979003;28;20022;-72
2021/05/19 08:10:01;;;;;;;4.30;0.40;;;;;;;18.35;24.20;98159.31;4989565;28;20543;-71
2021/05/19 08:12:27;;;;;;;7.10;1.38;;;;;;;18.66;25.31;98182.31;4975507;28;20071;-72
2021/05/19 08:14:52;;;;;;;5.40;1.20;;;;;;;18.83;25.93;98178.22;4980012;28;20030;-71
2021/05/19 08:17:19;;;;;;;5.28;0.65;;;;;;;18.90;26.11;98170.31;4987091;28;20031;-72
2021/05/19 08:19:45;;;;;;;7.55;0.50;;;;;;;19.01;24.93;98177.56;4993627;28;20030;-72
2021/05/19 08:22:13;;;;;;;2.55;0.47;;;;;;;19.12;26.30;98175.28;4976346;28;20107;-72
2021/05/19 08:24:39;;;;;;;3.10;0.25;;;;;;;19.29;23.38;98176.41;4979006;28;20034;-71
2021/05/19 08:27:04;;;;;;;1.45;0.38;;;;;;;19.40;23.21;98167.00;4995021;28;20030;-70
2021/05/19 08:29:30;;;;;;;2.30;0.35;;;;;;;19.53;23.42;98171.41;4981922;28;20407;-71
2021/05/19 08:31:56;;;;;;;1.88;0.32;;;;;;;19.63;24.33;98176.22;4972354;28;20049;-71
2021/05/19 08:34:22;;;;;;;0.65;0.20;;;;;;;19.68;24.49;98174.56;4979075;28;20058;-72
2021/05/19 08:36:47;;;;;;;3.50;1.65;;;;;;;19.71;25.57;98163.59;4974181;28;20044;-71
2021/05/19 08:39:12;;;;;;;7.47;2.50;;;;;;;19.85;25.94;98156.38;4986601;28;20034;-71
2021/05/19 08:41:38;;;;;;;7.32;2.00;;;;;;;19.98;25.62;98171.28;4986258;28;20652;-71
2021/05/19 08:44:06;;;;;;;2.80;0.40;;;;;;;20.01;22.97;98170.06;4996613;28;20105;-71
2021/05/19 08:46:32;;;;;;;2.20;0.50;;;;;;;19.96;23.10;98168.88;4999542;28;20100;-71
2021/05/19 08:49:04;;;;;;;2.58;0.40;;;;;;;19.94;20.41;98162.22;4985940;28;20038;-71
2021/05/19 08:51:30;;;;;;;5.60;1.48;;;;;;;19.98;21.65;98166.03;4982768;28;20368;-71
2021/05/19 08:53:55;;;;;;;3.65;0.50;;;;;;;20.19;21.65;98164.00;4971359;28;20030;-71
2021/05/19 08:56:21;;;;;;;0.93;0.20;;;;;;;20.21;22.01;98157.50;4981312;28;20034;-71
2021/05/19 08:58:46;;;;;;;3.00;0.40;;;;;;;20.32;24.21;98163.91;4986017;28;20388;-71
2021/05/19 09:01:22;;;;;;;0.30;0.10;;;;;;;20.33;22.35;98160.22;4997657;28;20125;-71
2021/05/19 09:04:04;;;;;;;1.23;0.25;;;;;;;20.34;22.73;98159.19;4976095;28;20058;-71
2021/05/19 09:06:29;;;;;;;4.43;0.40;;;;;;;20.48;23.86;98159.84;4981851;28;20030;-71
2021/05/19 09:08:55;;;;;;;0.38;0.20;;;;;;;20.51;22.34;98154.94;4985014;28;20034;-71
2021/05/19 09:11:20;;;;;;;2.85;0.30;;;;;;;20.50;22.10;98152.53;4982537;28;20027;-71
2021/05/19 09:13:46;;;;;;;1.55;0.20;;;;;;;20.43;23.94;98144.69;4996054;28;20698;-72
2021/05/19 09:16:18;;;;;;;1.60;0.20;;;;;;;20.54;22.47;98149.22;4967217;28;20478;-71
2021/05/19 09:18:57;;;;;;;0.15;0.10;;;;;;;20.58;22.97;98151.44;4983481;28;20399;-73
2021/05/19 09:21:34;;;;;;;1.65;0.43;;;;;;;20.63;22.73;98151.63;4980418;28;20081;-72
2021/05/19 09:24:02;;;;;;;2.05;0.45;;;;;;;20.78;22.98;98149.41;4976898;28;20045;-72
2021/05/19 09:26:27;;;;;;;2.05;0.20;;;;;;;20.52;20.11;98111.69;4976757;28;20034;-72
2021/05/19 09:28:53;;;;;;;1.00;0.22;;;;;;;20.74;20.10;98140.31;4984802;28;20037;-72
2021/05/19 09:31:22;;;;;;;3.28;0.20;;;;;;;20.79;22.77;98143.09;4989020;28;20118;-71
2021/05/19 09:33:50;;;;;;;0.98;0.15;;;;;;;20.86;23.19;98146.47;4986433;28;20065;-70
2021/05/19 09:36:20;;;;;;;2.60;0.20;;;;;;;20.97;23.54;98144.09;4997223;28;20026;-73
2021/05/19 09:38:49;;;;;;;3.83;1.40;;;;;;;21.09;25.51;98145.75;4996698;28;20142;-73
2021/05/19 09:41:36;;;;;;;2.33;0.40;;;;;;;21.03;22.25;98149.28;4985055;28;20105;-73
2021/05/19 09:44:04;;;;;;;1.85;0.68;;;;;;;21.15;22.08;98145.88;5002685;28;20056;-71
2021/05/19 09:49:14;;;;;;;1.73;0.40;;;;;;;21.22;24.78;98143.97;5001790;28;20089;-74
2021/05/19 09:51:41;;;;;;;1.05;0.30;;;;;;;21.36;22.63;98134.00;4991633;28;20026;-72
2021/05/19 09:54:26;;;;;;;1.42;0.40;;;;;;;21.22;21.10;98122.81;4980888;28;20026;-72
2021/05/19 09:57:00;;;;;;;2.05;0.20;;;;;;;21.30;19.84;98128.59;4964599;28;20125;-71
2021/05/19 09:59:26;;;;;;;4.88;0.50;;;;;;;21.43;19.95;98129.41;4964543;28;20608;-72
2021/05/19 10:01:52;;;;;;;0.82;0.20;;;;;;;21.52;23.32;98141.31;4977686;28;21310;-71
2021/05/19 10:04:21;;;;;;;1.23;0.30;;;;;;;21.65;22.44;98138.47;4976864;28;20041;-70
2021/05/19 10:06:48;;;;;;;0.57;0.20;;;;;;;21.55;23.01;98122.34;4981535;28;20041;-72
2021/05/19 10:09:15;;;;;;;1.90;0.30;;;;;;;21.47;23.68;98114.75;4990995;28;20300;-73
2021/05/19 10:11:41;;;;;;;1.08;0.30;;;;;;;21.62;20.56;98130.19;4978781;28;20038;-72
2021/05/19 10:14:10;;;;;;;1.75;0.40;;;;;;;21.57;22.13;98132.69;4966303;28;20508;-72
2021/05/19 10:16:36;;;;;;;1.80;0.40;;;;;;;21.54;21.02;98131.31;4983625;28;20030;-71
2021/05/19 10:19:03;;;;;;;1.88;0.40;;;;;;;21.56;21.18;98126.59;4979479;28;20487;-72
2021/05/19 10:21:34;;;;;;;0.68;0.20;;;;;;;21.62;18.07;98124.88;4991529;28;20030;-72
2021/05/19 10:24:10;;;;;;;0.90;0.20;;;;;;;21.62;19.02;98125.69;4996459;28;20026;-71
2021/05/19 10:27:04;;;;;;;1.65;0.30;;;;;;;21.74;21.15;98116.94;4988964;28;20038;-72
2021/05/19 10:29:48;;;;;;;0.80;0.20;;;;;;;21.76;19.76;98121.00;4980481;28;20026;-75
2021/05/19 10:32:22;;;;;;;2.53;0.30;;;;;;;21.79;20.19;98122.38;4991671;28;20433;-75
2021/05/19 10:34:49;;;;;;;3.50;0.50;;;;;;;21.60;19.47;98100.50;4976744;28;20057;-73
2021/05/19 10:37:27;;;;;;;2.28;0.50;;;;;;;21.81;18.91;98115.81;4976947;28;20034;-74
2021/05/19 10:40:08;;;;;;;3.28;0.40;;;;;;;21.86;20.19;98110.63;4979070;28;20022;-72
2021/05/19 10:42:44;;;;;;;1.17;0.30;;;;;;;21.83;20.92;98110.28;4980016;28;20084;-71
2021/05/19 10:45:15;;;;;;;0.82;0.17;;;;;;;21.92;19.20;98097.50;4975413;28;20361;-71
2021/05/19 10:47:45;;;;;;;0.77;0.30;;;;;;;21.93;20.26;98083.25;4965065;28;20026;-72
2021/05/19 10:50:22;;;;;;;1.35;0.40;;;;;;;21.98;18.54;98100.06;4978570;28;20030;-72
2021/05/19 10:58:53;;;;;;;1.20;0.30;;;;;;;22.19;20.54;98095.19;4992737;28;20045;-75
2021/05/19 11:01:37;;;;;;;1.35;0.30;;;;;;;22.19;20.74;98090.69;4990739;28;20695;-71
2021/05/19 11:04:35;;;;;;;1.00;0.30;;;;;;;22.18;19.92;98093.59;4987798;28;20026;-73
2021/05/19 11:07:01;;;;;;;1.52;0.30;;;;;;;22.26;20.02;98088.75;4934563;28;20045;-73
2021/05/19 11:09:32;;;;;;;6.63;0.70;;;;;;;22.27;20.35;98086.94;4998138;28;20031;-77
2021/05/19 11:12:16;;;;;;;8.25;1.17;;;;;;;22.24;17.78;98082.88;4997228;28;20034;-72
2021/05/19 11:14:47;;;;;;;2.42;0.40;;;;;;;22.20;17.75;98065.06;4994755;28;20076;-75
2021/05/19 11:19:38;;;;;;;5.28;0.70;;;;;;;22.21;18.25;98080.69;4980913;28;20149;-71
2021/05/19 11:22:14;;;;;;;5.03;0.45;;;;;;;22.28;18.42;98072.66;4994551;28;20649;-71
2021/05/19 11:25:00;;;;;;;6.40;0.77;;;;;;;22.27;18.58;98085.09;4996099;28;20026;-69
2021/05/19 11:27:31;;;;;;;4.32;0.60;;;;;;;22.30;19.64;98069.78;4976163;28;20035;-68
2021/05/19 11:29:57;;;;;;;2.20;0.20;;;;;;;22.27;17.99;98063.09;4982309;28;20033;-70
2021/05/19 11:32:25;;;;;;;1.65;0.20;;;;;;;22.23;18.45;98059.25;4980730;28;20049;-71
2021/05/19 11:34:51;;;;;;;1.92;0.50;;;;;;;22.30;18.09;98057.31;4975921;28;20023;-71
2021/05/19 11:37:19;;;;;;;3.28;0.30;;;;;;;22.36;18.50;98052.94;4977903;28;20037;-71
2021/05/19 11:39:55;;;;;;;11.50;1.15;;;;;;;22.34;19.17;98047.06;4993524;28;20062;-70
2021/05/19 11:42:24;;;;;;;6.68;0.60;;;;;;;22.36;18.08;98052.94;4990292;28;20053;-71
2021/05/19 11:44:56;;;;;;;15.60;1.25;;;;;;;22.52;17.72;98054.84;4974575;28;20068;-71